sensor_id;sensor_type;location;lat;lon;timestamp;pressure;altitude;pressure_sealevel;temperature;humidity
18275;BME280;19470;49.322;7.218;2023-05-21T00:01:13;98438.88;;;20.56;86.18
18275;BME280;19470;49.322;7.218;2023-05-21T00:03:40;98442.13;;;20.92;84.14
18275;BME280;19470;49.322;7.218;2023-05-21T00:06:09;98442.44;;;20.82;84.24
18275;BME280;19470;49.322;7.218;2023-05-21T00:08:37;98436.59;;;20.89;84.25
18275;BME280;19470;49.322;7.218;2023-05-21T00:11:04;98430.69;;;20.78;84.96
18275;BME280;19470;49.322;7.218;2023-05-21T00:13:30;98429.16;;;20.95;85.13
18275;BME280;19470;49.322;7.218;2023-05-21T00:15:58;98427.81;;;20.49;87.51
18275;BME280;19470;49.322;7.218;2023-05-21T00:18:25;98427.41;;;20.41;87.28
18275;BME280;19470;49.322;7.218;2023-05-21T00:20:51;98429.25;;;20.63;86.75
18275;BME280;19470;49.322;7.218;2023-05-21T00:23:18;98422.41;;;20.49;87.25
18275;BME280;19470;49.322;7.218;2023-05-21T00:25:45;98418.19;;;20.74;86.57
18275;BME280;19470;49.322;7.218;2023-05-21T00:28:12;98424.25;;;20.39;88.59
18275;BME280;19470;49.322;7.218;2023-05-21T00:30:38;98422.97;;;20.28;89.67
18275;BME280;19470;49.322;7.218;2023-05-21T00:33:08;98420.91;;;20.82;86.41
18275;BME280;19470;49.322;7.218;2023-05-21T00:35:38;98415.38;;;20.96;85.73
18275;BME280;19470;49.322;7.218;2023-05-21T00:38:04;98414.25;;;20.80;87.01
18275;BME280;19470;49.322;7.218;2023-05-21T00:40:33;98417.50;;;20.51;88.41
18275;BME280;19470;49.322;7.218;2023-05-21T00:43:00;98415.06;;;20.80;87.21
18275;BME280;19470;49.322;7.218;2023-05-21T00:45:26;98416.16;;;20.31;88.81
18275;BME280;19470;49.322;7.218;2023-05-21T00:48:03;98411.66;;;20.49;88.64
18275;BME280;19470;49.322;7.218;2023-05-21T00:50:31;98404.44;;;20.75;87.08
18275;BME280;19470;49.322;7.218;2023-05-21T00:52:58;98397.28;;;20.62;88.07
18275;BME280;19470;49.322;7.218;2023-05-21T00:55:25;98394.91;;;20.60;88.80
18275;BME280;19470;49.322;7.218;2023-05-21T00:57:51;98388.59;;;20.82;87.32
18275;BME280;19470;49.322;7.218;2023-05-21T01:00:18;98394.03;;;20.34;88.59
18275;BME280;19470;49.322;7.218;2023-05-21T01:02:45;98393.03;;;20.21;90.55
18275;BME280;19470;49.322;7.218;2023-05-21T01:05:11;98398.72;;;20.68;88.85
18275;BME280;19470;49.322;7.218;2023-05-21T01:07:40;98395.84;;;20.56;89.57
18275;BME280;19470;49.322;7.218;2023-05-21T01:10:09;98393.97;;;20.82;87.67
18275;BME280;19470;49.322;7.218;2023-05-21T01:12:37;98382.56;;;20.68;88.50
18275;BME280;19470;49.322;7.218;2023-05-21T01:15:05;98381.94;;;20.88;87.46
18275;BME280;19470;49.322;7.218;2023-05-21T01:17:32;98377.53;;;20.75;87.79
18275;BME280;19470;49.322;7.218;2023-05-21T01:20:00;98374.34;;;20.82;87.49
18275;BME280;19470;49.322;7.218;2023-05-21T01:22:30;98371.50;;;20.78;87.95
18275;BME280;19470;49.322;7.218;2023-05-21T01:24:58;98376.41;;;20.76;88.08
18275;BME280;19470;49.322;7.218;2023-05-21T01:27:26;98376.56;;;20.71;88.15
18275;BME280;19470;49.322;7.218;2023-05-21T01:29:53;98377.28;;;20.46;91.01
18275;BME280;19470;49.322;7.218;2023-05-21T01:32:24;98381.78;;;20.67;90.00
18275;BME280;19470;49.322;7.218;2023-05-21T01:38:19;98378.31;;;20.93;87.92
18275;BME280;19470;49.322;7.218;2023-05-21T01:40:52;98363.84;;;20.46;90.86
18275;BME280;19470;49.322;7.218;2023-05-21T01:43:19;98364.06;;;20.75;89.13
18275;BME280;19470;49.322;7.218;2023-05-21T01:45:51;98373.06;;;20.53;89.13
18275;BME280;19470;49.322;7.218;2023-05-21T01:48:19;98360.88;;;20.56;90.50
18275;BME280;19470;49.322;7.218;2023-05-21T01:50:47;98359.94;;;20.52;91.27
18275;BME280;19470;49.322;7.218;2023-05-21T01:53:15;98361.03;;;20.68;88.31
18275;BME280;19470;49.322;7.218;2023-05-21T01:55:41;98366.13;;;20.61;89.15
18275;BME280;19470;49.322;7.218;2023-05-21T01:58:10;98363.88;;;20.54;89.64
18275;BME280;19470;49.322;7.218;2023-05-21T02:00:36;98364.19;;;20.53;90.19
18275;BME280;19470;49.322;7.218;2023-05-21T02:03:04;98359.97;;;20.12;92.27
18275;BME280;19470;49.322;7.218;2023-05-21T02:05:30;98357.38;;;20.55;90.55
18275;BME280;19470;49.322;7.218;2023-05-21T02:07:57;98359.53;;;20.36;91.96
18275;BME280;19470;49.322;7.218;2023-05-21T02:10:25;98354.94;;;20.36;91.85
18275;BME280;19470;49.322;7.218;2023-05-21T02:12:52;98360.78;;;20.21;92.01
18275;BME280;19470;49.322;7.218;2023-05-21T02:15:19;98353.06;;;20.46;91.41
18275;BME280;19470;49.322;7.218;2023-05-21T02:17:46;98347.41;;;20.56;90.86
18275;BME280;19470;49.322;7.218;2023-05-21T02:20:15;98347.16;;;20.17;92.48
18275;BME280;19470;49.322;7.218;2023-05-21T02:22:43;98354.28;;;20.22;92.53
18275;BME280;19470;49.322;7.218;2023-05-21T02:25:12;98349.34;;;20.64;90.32
18275;BME280;19470;49.322;7.218;2023-05-21T02:27:39;98354.09;;;20.67;90.52
18275;BME280;19470;49.322;7.218;2023-05-21T02:30:08;98352.50;;;20.66;89.48
18275;BME280;19470;49.322;7.218;2023-05-21T02:32:36;98348.53;;;20.63;89.36
18275;BME280;19470;49.322;7.218;2023-05-21T02:35:04;98351.56;;;20.62;90.56
18275;BME280;19470;49.322;7.218;2023-05-21T02:37:31;98350.63;;;20.75;89.53
18275;BME280;19470;49.322;7.218;2023-05-21T02:39:59;98353.31;;;20.66;90.73
18275;BME280;19470;49.322;7.218;2023-05-21T02:42:26;98356.63;;;20.72;90.40
18275;BME280;19470;49.322;7.218;2023-05-21T02:44:52;98354.25;;;20.62;90.67
18275;BME280;19470;49.322;7.218;2023-05-21T02:47:19;98346.19;;;20.62;89.84
18275;BME280;19470;49.322;7.218;2023-05-21T02:49:50;98351.38;;;20.93;88.23
18275;BME280;19470;49.322;7.218;2023-05-21T02:52:17;98348.72;;;20.67;90.79
18275;BME280;19470;49.322;7.218;2023-05-21T02:54:43;98352.81;;;20.73;89.52
18275;BME280;19470;49.322;7.218;2023-05-21T02:57:10;98351.88;;;20.69;90.09
18275;BME280;19470;49.322;7.218;2023-05-21T02:59:36;98354.00;;;20.32;92.74
18275;BME280;19470;49.322;7.218;2023-05-21T03:02:03;98340.28;;;20.42;92.40
18275;BME280;19470;49.322;7.218;2023-05-21T03:04:30;98349.47;;;20.59;91.33
18275;BME280;19470;49.322;7.218;2023-05-21T03:06:58;98355.91;;;20.40;92.31
18275;BME280;19470;49.322;7.218;2023-05-21T03:09:26;98354.50;;;20.34;93.06
18275;BME280;19470;49.322;7.218;2023-05-21T03:11:52;98348.47;;;20.29;93.68
18275;BME280;19470;49.322;7.218;2023-05-21T03:14:19;98344.50;;;20.26;93.23
18275;BME280;19470;49.322;7.218;2023-05-21T03:16:46;98339.28;;;20.30;93.43
18275;BME280;19470;49.322;7.218;2023-05-21T03:19:14;98340.03;;;20.13;94.54
18275;BME280;19470;49.322;7.218;2023-05-21T03:21:40;98335.97;;;20.24;93.65
18275;BME280;19470;49.322;7.218;2023-05-21T03:24:08;98339.88;;;20.18;94.07
18275;BME280;19470;49.322;7.218;2023-05-21T03:26:37;98338.38;;;19.86;96.00
18275;BME280;19470;49.322;7.218;2023-05-21T03:29:04;98329.00;;;19.52;100.00
18275;BME280;19470;49.322;7.218;2023-05-21T03:31:30;98331.03;;;19.69;99.59
18275;BME280;19470;49.322;7.218;2023-05-21T03:33:57;98339.03;;;19.91;99.80
18275;BME280;19470;49.322;7.218;2023-05-21T03:36:23;98334.69;;;19.20;100.00
18275;BME280;19470;49.322;7.218;2023-05-21T03:38:50;98336.06;;;19.62;100.00
18275;BME280;19470;49.322;7.218;2023-05-21T03:41:18;98336.91;;;19.49;100.00
18275;BME280;19470;49.322;7.218;2023-05-21T03:43:45;98343.13;;;19.58;100.00
18275;BME280;19470;49.322;7.218;2023-05-21T03:46:11;98332.88;;;19.37;100.00
18275;BME280;19470;49.322;7.218;2023-05-21T03:48:38;98332.31;;;19.18;100.00
18275;BME280;19470;49.322;7.218;2023-05-21T03:51:04;98332.22;;;19.32;100.00
18275;BME280;19470;49.322;7.218;2023-05-21T03:53:32;98335.84;;;18.82;100.00
18275;BME280;19470;49.322;7.218;2023-05-21T03:55:59;98335.56;;;19.06;100.00
18275;BME280;19470;49.322;7.218;2023-05-21T03:58:27;98333.09;;;19.19;100.00
18275;BME280;19470;49.322;7.218;2023-05-21T04:00:53;98335.00;;;19.18;100.00
18275;BME280;19470;49.322;7.218;2023-05-21T04:03:20;98339.69;;;19.12;100.00
18275;BME280;19470;49.322;7.218;2023-05-21T04:05:46;98336.94;;;19.26;100.00
18275;BME280;19470;49.322;7.218;2023-05-21T04:08:13;98346.34;;;19.15;100.00
18275;BME280;19470;49.322;7.218;2023-05-21T04:10:40;98345.19;;;19.07;100.00
18275;BME280;19470;49.322;7.218;2023-05-21T04:13:07;98347.94;;;19.16;100.00
18275;BME280;19470;49.322;7.218;2023-05-21T04:15:34;98342.19;;;19.09;100.00
18275;BME280;19470;49.322;7.218;2023-05-21T04:18:02;98345.72;;;19.18;100.00
18275;BME280;19470;49.322;7.218;2023-05-21T04:20:29;98349.78;;;18.71;100.00
18275;BME280;19470;49.322;7.218;2023-05-21T04:22:55;98349.25;;;19.05;100.00
18275;BME280;19470;49.322;7.218;2023-05-21T04:25:22;98349.00;;;19.37;100.00
18275;BME280;19470;49.322;7.218;2023-05-21T04:27:49;98350.22;;;19.31;100.00
18275;BME280;19470;49.322;7.218;2023-05-21T04:30:18;98358.06;;;19.73;100.00
18275;BME280;19470;49.322;7.218;2023-05-21T04:32:46;98346.22;;;19.51;100.00
18275;BME280;19470;49.322;7.218;2023-05-21T04:35:13;98348.34;;;19.94;100.00
18275;BME280;19470;49.322;7.218;2023-05-21T04:37:40;98357.88;;;20.00;100.00
18275;BME280;19470;49.322;7.218;2023-05-21T04:40:10;98351.72;;;20.08;100.00
18275;BME280;19470;49.322;7.218;2023-05-21T04:42:42;98352.84;;;20.16;99.23
18275;BME280;19470;49.322;7.218;2023-05-21T04:45:09;98357.09;;;20.08;99.28
18275;BME280;19470;49.322;7.218;2023-05-21T04:47:36;98351.88;;;20.12;100.00
18275;BME280;19470;49.322;7.218;2023-05-21T04:50:05;98359.50;;;20.10;99.21
18275;BME280;19470;49.322;7.218;2023-05-21T04:52:32;98356.78;;;20.67;95.30
18275;BME280;19470;49.322;7.218;2023-05-21T04:54:58;98357.25;;;20.52;95.26
18275;BME280;19470;49.322;7.218;2023-05-21T04:57:25;98354.84;;;20.50;95.77
18275;BME280;19470;49.322;7.218;2023-05-21T04:59:52;98361.28;;;20.23;98.21
18275;BME280;19470;49.322;7.218;2023-05-21T05:02:19;98355.66;;;20.68;95.28
18275;BME280;19470;49.322;7.218;2023-05-21T05:04:45;98359.63;;;20.53;96.20
18275;BME280;19470;49.322;7.218;2023-05-21T05:07:13;98356.78;;;20.76;94.29
18275;BME280;19470;49.322;7.218;2023-05-21T05:09:41;98356.31;;;20.56;95.88
18275;BME280;19470;49.322;7.218;2023-05-21T05:12:07;98358.53;;;20.80;95.83
18275;BME280;19470;49.322;7.218;2023-05-21T05:14:34;98347.13;;;20.66;94.73
18275;BME280;19470;49.322;7.218;2023-05-21T05:17:00;98350.44;;;21.06;92.13
18275;BME280;19470;49.322;7.218;2023-05-21T05:19:26;98350.09;;;21.42;90.42
18275;BME280;19470;49.322;7.218;2023-05-21T05:21:53;98356.88;;;21.49;89.21
18275;BME280;19470;49.322;7.218;2023-05-21T05:24:21;98354.75;;;20.99;90.61
18275;BME280;19470;49.322;7.218;2023-05-21T05:26:47;98354.88;;;21.19;91.20
18275;BME280;19470;49.322;7.218;2023-05-21T05:29:14;98351.91;;;21.68;87.83
18275;BME280;19470;49.322;7.218;2023-05-21T05:31:40;98347.66;;;21.67;87.82
18275;BME280;19470;49.322;7.218;2023-05-21T05:34:07;98344.50;;;21.65;87.98
18275;BME280;19470;49.322;7.218;2023-05-21T05:36:33;98344.50;;;21.65;87.51
18275;BME280;19470;49.322;7.218;2023-05-21T05:39:00;98345.81;;;21.24;89.62
18275;BME280;19470;49.322;7.218;2023-05-21T05:41:27;98347.06;;;21.53;88.51
18275;BME280;19470;49.322;7.218;2023-05-21T05:43:54;98346.47;;;21.38;89.36
18275;BME280;19470;49.322;7.218;2023-05-21T05:46:20;98345.13;;;21.62;87.58
18275;BME280;19470;49.322;7.218;2023-05-21T05:48:47;98350.88;;;21.52;88.74
18275;BME280;19470;49.322;7.218;2023-05-21T05:51:14;98349.88;;;21.65;88.19
18275;BME280;19470;49.322;7.218;2023-05-21T05:53:41;98353.06;;;21.58;87.26
18275;BME280;19470;49.322;7.218;2023-05-21T05:56:07;98361.69;;;21.00;90.89
18275;BME280;19470;49.322;7.218;2023-05-21T05:58:35;98357.78;;;21.70;86.80
18275;BME280;19470;49.322;7.218;2023-05-21T06:01:02;98361.50;;;21.39;88.37
18275;BME280;19470;49.322;7.218;2023-05-21T06:03:28;98361.28;;;21.62;87.64
18275;BME280;19470;49.322;7.218;2023-05-21T06:05:55;98363.81;;;22.14;83.95
18275;BME280;19470;49.322;7.218;2023-05-21T06:08:21;98359.75;;;21.52;86.87
18275;BME280;19470;49.322;7.218;2023-05-21T06:10:48;98365.03;;;21.78;86.63
18275;BME280;19470;49.322;7.218;2023-05-21T06:13:15;98361.19;;;22.35;83.43
18275;BME280;19470;49.322;7.218;2023-05-21T06:15:43;98365.63;;;21.46;87.05
18275;BME280;19470;49.322;7.218;2023-05-21T06:18:09;98370.72;;;21.85;86.08
18275;BME280;19470;49.322;7.218;2023-05-21T06:20:36;98371.81;;;21.93;85.02
18275;BME280;19470;49.322;7.218;2023-05-21T06:23:02;98380.22;;;21.91;84.75
18275;BME280;19470;49.322;7.218;2023-05-21T06:25:30;98377.53;;;22.30;83.92
18275;BME280;19470;49.322;7.218;2023-05-21T06:27:57;98371.59;;;22.07;84.95
18275;BME280;19470;49.322;7.218;2023-05-21T06:30:23;98364.88;;;22.72;81.39
18275;BME280;19470;49.322;7.218;2023-05-21T06:36:13;98359.09;;;22.02;85.33
18275;BME280;19470;49.322;7.218;2023-05-21T06:38:39;98362.25;;;22.04;84.25
18275;BME280;19470;49.322;7.218;2023-05-21T06:41:06;98361.47;;;22.04;84.58
18275;BME280;19470;49.322;7.218;2023-05-21T06:43:33;98361.25;;;22.17;83.15
18275;BME280;19470;49.322;7.218;2023-05-21T06:46:00;98362.50;;;22.50;81.87
18275;BME280;19470;49.322;7.218;2023-05-21T06:48:26;98357.50;;;22.60;81.72
18275;BME280;19470;49.322;7.218;2023-05-21T06:50:53;98351.06;;;22.23;83.71
18275;BME280;19470;49.322;7.218;2023-05-21T06:53:20;98358.81;;;22.54;83.36
18275;BME280;19470;49.322;7.218;2023-05-21T06:55:47;98364.72;;;22.48;84.88
18275;BME280;19470;49.322;7.218;2023-05-21T06:58:17;98353.41;;;22.75;82.03
18275;BME280;19470;49.322;7.218;2023-05-21T07:00:44;98357.75;;;22.47;82.53
18275;BME280;19470;49.322;7.218;2023-05-21T07:06:32;98361.81;;;22.82;81.57
18275;BME280;19470;49.322;7.218;2023-05-21T07:09:00;98364.75;;;22.09;84.13
18275;BME280;19470;49.322;7.218;2023-05-21T07:11:27;98367.91;;;22.50;82.29
18275;BME280;19470;49.322;7.218;2023-05-21T07:13:53;98366.06;;;22.83;81.05
18275;BME280;19470;49.322;7.218;2023-05-21T07:16:20;98367.75;;;22.46;82.46
18275;BME280;19470;49.322;7.218;2023-05-21T07:18:47;98377.34;;;23.85;77.54
18275;BME280;19470;49.322;7.218;2023-05-21T07:21:13;98365.28;;;23.70;76.45
18275;BME280;19470;49.322;7.218;2023-05-21T07:23:40;98375.09;;;22.87;80.43
18275;BME280;19470;49.322;7.218;2023-05-21T07:26:08;98378.97;;;23.86;76.83
18275;BME280;19470;49.322;7.218;2023-05-21T07:28:35;98378.25;;;23.64;78.29
18275;BME280;19470;49.322;7.218;2023-05-21T07:31:02;98371.47;;;23.70;76.86
18275;BME280;19470;49.322;7.218;2023-05-21T07:33:28;98369.38;;;23.76;77.41
18275;BME280;19470;49.322;7.218;2023-05-21T07:35:55;98367.75;;;24.73;72.42
18275;BME280;19470;49.322;7.218;2023-05-21T07:38:21;98374.91;;;24.53;73.58
18275;BME280;19470;49.322;7.218;2023-05-21T07:40:48;98376.94;;;24.56;72.92
18275;BME280;19470;49.322;7.218;2023-05-21T07:43:15;98374.47;;;24.91;72.28
18275;BME280;19470;49.322;7.218;2023-05-21T07:45:42;98371.41;;;24.93;72.31
18275;BME280;19470;49.322;7.218;2023-05-21T07:48:08;98364.16;;;24.69;73.31
18275;BME280;19470;49.322;7.218;2023-05-21T07:50:35;98360.78;;;24.60;73.27
18275;BME280;19470;49.322;7.218;2023-05-21T07:53:02;98359.13;;;24.95;71.81
18275;BME280;19470;49.322;7.218;2023-05-21T07:55:29;98362.34;;;25.41;69.72
18275;BME280;19470;49.322;7.218;2023-05-21T07:57:55;98353.44;;;25.72;68.72
18275;BME280;19470;49.322;7.218;2023-05-21T08:00:23;98359.03;;;26.27;67.00
18275;BME280;19470;49.322;7.218;2023-05-21T08:02:50;98353.75;;;26.50;64.58
18275;BME280;19470;49.322;7.218;2023-05-21T08:05:17;98347.19;;;26.51;64.70
18275;BME280;19470;49.322;7.218;2023-05-21T08:07:45;98351.44;;;26.87;63.10
18275;BME280;19470;49.322;7.218;2023-05-21T08:10:11;98348.44;;;26.73;65.38
18275;BME280;19470;49.322;7.218;2023-05-21T08:12:38;98353.13;;;25.90;67.51
18275;BME280;19470;49.322;7.218;2023-05-21T08:15:06;98351.88;;;25.56;66.80
18275;BME280;19470;49.322;7.218;2023-05-21T08:17:34;98354.94;;;26.17;66.77
18275;BME280;19470;49.322;7.218;2023-05-21T08:20:01;98349.09;;;25.99;67.13
18275;BME280;19470;49.322;7.218;2023-05-21T08:22:27;98354.72;;;26.42;66.32
18275;BME280;19470;49.322;7.218;2023-05-21T08:24:54;98347.72;;;27.34;62.73
18275;BME280;19470;49.322;7.218;2023-05-21T08:27:20;98341.63;;;27.02;63.57
18275;BME280;19470;49.322;7.218;2023-05-21T08:29:47;98344.47;;;27.29;61.45
18275;BME280;19470;49.322;7.218;2023-05-21T08:32:13;98341.06;;;26.93;65.29
18275;BME280;19470;49.322;7.218;2023-05-21T08:34:41;98347.16;;;27.25;61.91
18275;BME280;19470;49.322;7.218;2023-05-21T08:37:08;98344.78;;;26.85;64.94
18275;BME280;19470;49.322;7.218;2023-05-21T08:39:34;98344.84;;;27.27;61.49
18275;BME280;19470;49.322;7.218;2023-05-21T08:42:07;98342.00;;;27.62;62.27
18275;BME280;19470;49.322;7.218;2023-05-21T08:44:36;98346.00;;;27.07;62.99
18275;BME280;19470;49.322;7.218;2023-05-21T08:47:06;98331.75;;;27.33;63.12
18275;BME280;19470;49.322;7.218;2023-05-21T08:49:35;98340.56;;;27.26;62.97
18275;BME280;19470;49.322;7.218;2023-05-21T08:52:04;98336.34;;;27.51;63.82
18275;BME280;19470;49.322;7.218;2023-05-21T08:54:30;98336.78;;;27.54;63.37
18275;BME280;19470;49.322;7.218;2023-05-21T08:56:58;98334.19;;;27.61;63.52
18275;BME280;19470;49.322;7.218;2023-05-21T08:59:26;98337.47;;;26.50;65.34
18275;BME280;19470;49.322;7.218;2023-05-21T09:01:53;98339.69;;;26.44;65.16
18275;BME280;19470;49.322;7.218;2023-05-21T09:04:22;98336.41;;;26.74;66.60
18275;BME280;19470;49.322;7.218;2023-05-21T09:06:50;98339.91;;;27.56;62.87
18275;BME280;19470;49.322;7.218;2023-05-21T09:09:24;98334.69;;;27.24;62.87
18275;BME280;19470;49.322;7.218;2023-05-21T09:15:21;98341.25;;;26.45;65.41
18275;BME280;19470;49.322;7.218;2023-05-21T09:17:48;98338.69;;;26.72;65.18
18275;BME280;19470;49.322;7.218;2023-05-21T09:20:15;98332.66;;;27.40;64.20
18275;BME280;19470;49.322;7.218;2023-05-21T09:22:42;98327.38;;;27.28;62.70
18275;BME280;19470;49.322;7.218;2023-05-21T09:25:12;98330.03;;;26.31;66.06
18275;BME280;19470;49.322;7.218;2023-05-21T09:27:38;98331.84;;;26.59;65.35
18275;BME280;19470;49.322;7.218;2023-05-21T09:30:09;98329.19;;;26.27;66.24
18275;BME280;19470;49.322;7.218;2023-05-21T09:32:35;98327.31;;;27.05;64.19
18275;BME280;19470;49.322;7.218;2023-05-21T09:35:06;98337.94;;;27.98;62.01
18275;BME280;19470;49.322;7.218;2023-05-21T09:37:36;98330.44;;;27.69;61.82
18275;BME280;19470;49.322;7.218;2023-05-21T09:40:09;98326.88;;;27.65;62.07
18275;BME280;19470;49.322;7.218;2023-05-21T09:45:59;98326.59;;;28.76;58.77
18275;BME280;19470;49.322;7.218;2023-05-21T09:48:32;98326.06;;;29.71;55.38
18275;BME280;19470;49.322;7.218;2023-05-21T09:51:10;98324.28;;;29.08;57.16
18275;BME280;19470;49.322;7.218;2023-05-21T09:53:42;98317.38;;;30.07;55.46
18275;BME280;19470;49.322;7.218;2023-05-21T09:56:09;98309.75;;;31.35;52.19
18275;BME280;19470;49.322;7.218;2023-05-21T09:58:37;98316.53;;;30.65;51.83
18275;BME280;19470;49.322;7.218;2023-05-21T10:01:05;98311.03;;;29.95;54.25
18275;BME280;19470;49.322;7.218;2023-05-21T10:03:32;98302.75;;;31.48;49.84
18275;BME280;19470;49.322;7.218;2023-05-21T10:06:05;98311.06;;;33.04;47.26
18275;BME280;19470;49.322;7.218;2023-05-21T10:08:34;98307.81;;;31.89;47.39
18275;BME280;19470;49.322;7.218;2023-05-21T10:11:02;98308.91;;;31.13;47.87
18275;BME280;19470;49.322;7.218;2023-05-21T10:13:30;98309.38;;;31.62;48.45
18275;BME280;19470;49.322;7.218;2023-05-21T10:16:00;98303.50;;;31.60;49.19
18275;BME280;19470;49.322;7.218;2023-05-21T10:18:29;98308.56;;;32.33;46.00
18275;BME280;19470;49.322;7.218;2023-05-21T10:20:57;98303.91;;;31.69;49.75
18275;BME280;19470;49.322;7.218;2023-05-21T10:23:26;98305.16;;;33.05;44.78
18275;BME280;19470;49.322;7.218;2023-05-21T10:25:54;98298.00;;;32.17;46.40
18275;BME280;19470;49.322;7.218;2023-05-21T10:28:21;98302.69;;;31.27;49.21
18275;BME280;19470;49.322;7.218;2023-05-21T10:30:48;98299.78;;;32.77;46.42
18275;BME280;19470;49.322;7.218;2023-05-21T10:33:15;98296.22;;;32.87;46.28
18275;BME280;19470;49.322;7.218;2023-05-21T10:35:44;98298.41;;;31.47;47.72
18275;BME280;19470;49.322;7.218;2023-05-21T10:38:12;98297.66;;;31.29;48.20
18275;BME280;19470;49.322;7.218;2023-05-21T10:40:39;98299.59;;;32.03;48.41
18275;BME280;19470;49.322;7.218;2023-05-21T10:43:32;98287.75;;;32.49;47.36
18275;BME280;19470;49.322;7.218;2023-05-21T10:46:25;98281.59;;;31.38;49.26
18275;BME280;19470;49.322;7.218;2023-05-21T10:49:04;98275.38;;;31.34;51.37
18275;BME280;19470;49.322;7.218;2023-05-21T10:51:44;98280.66;;;33.85;46.09
18275;BME280;19470;49.322;7.218;2023-05-21T10:57:26;98291.81;;;34.12;40.73
18275;BME280;19470;49.322;7.218;2023-05-21T10:59:57;98287.59;;;32.92;42.09
18275;BME280;19470;49.322;7.218;2023-05-21T11:02:25;98291.66;;;33.32;42.40
18275;BME280;19470;49.322;7.218;2023-05-21T11:04:57;98282.88;;;34.72;42.59
18275;BME280;19470;49.322;7.218;2023-05-21T11:07:51;98290.38;;;35.02;40.07
18275;BME280;19470;49.322;7.218;2023-05-21T11:10:29;98282.09;;;35.29;38.86
18275;BME280;19470;49.322;7.218;2023-05-21T11:13:07;98287.03;;;33.19;40.37
18275;BME280;19470;49.322;7.218;2023-05-21T11:16:05;98286.78;;;32.95;42.49
18275;BME280;19470;49.322;7.218;2023-05-21T11:19:00;98283.56;;;31.45;45.47
18275;BME280;19470;49.322;7.218;2023-05-21T11:21:30;98287.47;;;30.28;47.91
18275;BME280;19470;49.322;7.218;2023-05-21T11:24:02;98288.31;;;30.43;47.83
18275;BME280;19470;49.322;7.218;2023-05-21T11:26:31;98283.91;;;30.17;48.42
18275;BME280;19470;49.322;7.218;2023-05-21T11:32:38;98273.38;;;31.20;48.57
18275;BME280;19470;49.322;7.218;2023-05-21T11:35:06;98289.81;;;30.29;50.22
18275;BME280;19470;49.322;7.218;2023-05-21T11:37:33;98283.94;;;31.79;47.95
18275;BME280;19470;49.322;7.218;2023-05-21T11:40:21;98283.94;;;31.47;47.17
18275;BME280;19470;49.322;7.218;2023-05-21T11:42:50;98281.84;;;30.03;48.86
18275;BME280;19470;49.322;7.218;2023-05-21T11:45:18;98279.28;;;29.73;48.57
18275;BME280;19470;49.322;7.218;2023-05-21T11:47:46;98283.69;;;30.58;47.57
18275;BME280;19470;49.322;7.218;2023-05-21T11:50:13;98281.91;;;30.97;48.04
18275;BME280;19470;49.322;7.218;2023-05-21T11:56:04;98279.25;;;31.76;48.21
18275;BME280;19470;49.322;7.218;2023-05-21T11:58:33;98281.63;;;31.85;47.34
18275;BME280;19470;49.322;7.218;2023-05-21T12:01:00;98282.22;;;32.64;45.95
18275;BME280;19470;49.322;7.218;2023-05-21T12:03:26;98276.56;;;31.90;47.48
18275;BME280;19470;49.322;7.218;2023-05-21T12:05:54;98283.09;;;32.32;46.13
18275;BME280;19470;49.322;7.218;2023-05-21T12:08:22;98274.50;;;32.30;46.08
18275;BME280;19470;49.322;7.218;2023-05-21T12:10:54;98276.09;;;31.17;47.10
18275;BME280;19470;49.322;7.218;2023-05-21T12:13:22;98281.47;;;30.81;51.17
18275;BME280;19470;49.322;7.218;2023-05-21T12:15:51;98281.53;;;31.02;48.67
18275;BME280;19470;49.322;7.218;2023-05-21T12:18:17;98285.91;;;31.61;48.64
18275;BME280;19470;49.322;7.218;2023-05-21T12:20:45;98285.47;;;32.23;45.19
18275;BME280;19470;49.322;7.218;2023-05-21T12:23:18;98287.47;;;31.33;46.27
18275;BME280;19470;49.322;7.218;2023-05-21T12:25:45;98285.66;;;32.86;45.96
18275;BME280;19470;49.322;7.218;2023-05-21T12:28:11;98285.53;;;31.94;47.56
18275;BME280;19470;49.322;7.218;2023-05-21T12:30:39;98288.44;;;33.45;44.53
18275;BME280;19470;49.322;7.218;2023-05-21T12:33:06;98287.56;;;32.89;44.84
18275;BME280;19470;49.322;7.218;2023-05-21T12:35:32;98285.38;;;32.62;45.77
18275;BME280;19470;49.322;7.218;2023-05-21T12:38:00;98284.31;;;32.17;44.35
18275;BME280;19470;49.322;7.218;2023-05-21T12:40:33;98290.03;;;32.69;44.03
18275;BME280;19470;49.322;7.218;2023-05-21T12:43:01;98290.84;;;32.62;45.03
18275;BME280;19470;49.322;7.218;2023-05-21T12:45:28;98283.91;;;32.29;45.95
18275;BME280;19470;49.322;7.218;2023-05-21T12:47:56;98285.44;;;31.05;48.15
18275;BME280;19470;49.322;7.218;2023-05-21T12:50:22;98285.91;;;31.93;47.90
18275;BME280;19470;49.322;7.218;2023-05-21T12:52:52;98294.81;;;31.08;48.65
18275;BME280;19470;49.322;7.218;2023-05-21T12:55:21;98288.53;;;30.82;48.20
18275;BME280;19470;49.322;7.218;2023-05-21T12:57:48;98294.13;;;31.68;47.67
18275;BME280;19470;49.322;7.218;2023-05-21T13:00:22;98291.84;;;30.40;49.26
18275;BME280;19470;49.322;7.218;2023-05-21T13:02:50;98289.78;;;30.22;50.77
18275;BME280;19470;49.322;7.218;2023-05-21T13:05:18;98287.47;;;31.40;48.42
18275;BME280;19470;49.322;7.218;2023-05-21T13:07:45;98281.63;;;31.35;48.92
18275;BME280;19470;49.322;7.218;2023-05-21T13:10:12;98283.94;;;32.11;46.09
18275;BME280;19470;49.322;7.218;2023-05-21T13:12:38;98288.59;;;32.25;45.76
18275;BME280;19470;49.322;7.218;2023-05-21T13:15:06;98286.50;;;32.65;45.34
18275;BME280;19470;49.322;7.218;2023-05-21T13:17:33;98283.81;;;33.31;43.43
18275;BME280;19470;49.322;7.218;2023-05-21T13:20:04;98277.97;;;32.48;45.62
18275;BME280;19470;49.322;7.218;2023-05-21T13:22:34;98278.31;;;33.35;43.21
18275;BME280;19470;49.322;7.218;2023-05-21T13:25:03;98282.59;;;33.43;44.31
18275;BME280;19470;49.322;7.218;2023-05-21T13:27:30;98276.50;;;33.69;43.56
18275;BME280;19470;49.322;7.218;2023-05-21T13:29:57;98273.59;;;32.65;46.16
18275;BME280;19470;49.322;7.218;2023-05-21T13:32:23;98272.50;;;32.52;47.72